« Back
NWS Peachtree City, Ga » Text Product » CSG Terminal Aerodrome Forecast


Printer-friendly Version
Current Version              Previous Versions:   1  2  3  4  5  6  7  8  9  

Terminal Aerodrome Forecast

181
FTUS42 KFFC 312324
TAFCSG
TAF
KCSG 312324Z 0100/0124 VRB04KT P6SM VCSH SCT060
     FM010100 00000KT P6SM SCT100
     FM011400 15004KT P6SM FEW040
     FM011600 16006KT P6SM SCT050 PROB30 0120/0124 6SM TSRA
      BKN040CB=

USA.gov is the U.S. government's official web portal to all federal, state and local government web resources and services.